Airfield :
LOGIN :

Register | Disclaimer

   EN    FR    IT 

 










Legend :    VFR   Marginal VFR   IFR   Intensive IFR   Very Intensive IFR
Visi :
Ceiling :
>= 8 km
>= 3000ft
5 to 8 km
1000 to 3000 ft
1500m to 5 km
500 to 1000 ft
800 to 1500m
200 to 500 ft
< 800m
< 200 ft
Symbols :   Thunderstorms  Fog  Heavy snow  Heavy precipitations  Wind > 20 kt
SIGMETs :     Misc.  Thunderstorms  Icing  Turbulence  Mountain Waves  Volcanic Ashes






- Airport Elevation : 461 ft
- IATA code : WIE


ETOU - Wiesbaden Army

CURRENT METAR :
  • 070219Z AUTO 00000KT 9999 -RA BKN019 BKN028 OVC033 02/01 A3003 RMK AO2 RAB09 CIG 019V029 SLP178 $

EXPIRED METARs :
  • 070155Z AUTO 00000KT 9999 FEW029 OVC065 02/01 A3004 RMK AO2 SLP182 T00150006
  • 070055Z AUTO 29003KT 9999 OVC055 02/01 A3005 RMK AO2 SLP185 T00180009 $
  • 062355Z AUTO 32004KT 9999 OVC050 02/00 A3006 RMK AO2 SLP188 60000 T00160004 10037 20004 55003 $

TAF TAF ETOU
Valid from the 06 at 21:00 until the 08 at 03:00 UTC


062100Z 0621/0803 29006KT 9999 SCT013 BKN035 QNH3005INS
BECMG 0700/0701 26006KT 9999 BKN013 QNH3004INS
BECMG 0702/0703 VRB05KT 8000 BR BKN015 QNH3003INS
BECMG 0709/0710 27006KT 9999 NSW BKN015 QNH2996INS
BECMG 0717/0718 VRB04KT 9999 OVC013 QNH2989INS
BECMG 0801/0802 VRB03KT 8000 BR SCT010 QNH2989INS TX05/0711Z TN02/0701Z LAST NO AMDS AFT 0621 NEXT 0705



MET'MAP, your aeronautical weather chart ! - Copyright ORBIFLY December 2007 - Disclaimer

ORBIFLY MET'MAP TEAM :

Programming & Development : Alexandra Zaïnal
Original concept : Baudouin d'Aumeries
Technical & hardware support : Manuel Goepfert
Assistance : Marc-Olivier Méhu




SOURCES & CREDITS :

   NOAA